Terminal Aerodrome Forecast
Issued by NWS Mt. Holly, NJ

Home | Current Version | Previous Version | Text Only | Print | Product List | Glossary On
Versions: 1 2 3 4 5 6 7 8 9 10 11 12 13 14 15 16 17 18 19 20 21 22 23 24 25 26 27 28 29 30 31
000
FTUS41 KPHI 060819 AAA
TAFRDG
TAF AMD
KRDG 060819Z 0608/0706 00000KT P6SM -RA OVC029
      TEMPO 0609/0613 4SM RA BR OVC012
     FM061300 02008KT 3SM RA BR OVC009
     FM061800 02008KT 5SM -RA BR OVC010=

USA.gov is the U.S. government's official web portal to all federal, state and local government web resources and services.